KOP weather

Public forecast

Using degrees Celsius for public forecast. Weather courtesy of forecast.io.

Current aviation weather report (METAR) for Nakhon Phanom Airport

Retrieved 2020/08/15 08:00 UTC (5 minutes ago):

VTUW 150800Z 22008KT 190V250 9999 SCT015 BKN060 27/24 Q1007 NOSIG

Aviation forecast (TAF) for Nakhon Phanom Airport

Retrieved 2020/08/15 06:00 UTC (2 hours ago):

TAF VTUW 150500Z 1506/1606 22005KT 9999 BKN030 BKN100 TEMPO 1508/1514 VRB15KT 4500 TSRA FEW018CB BKN020 BKN080 TEMPO 1521/1602 VRB15KT 5000 RA FEW018CB BKN020 BKN080